createdAt,value
2023-01-29T00:01:31.605Z,10.73
2023-01-29T00:06:35.207Z,8.07
2023-01-29T00:11:37.708Z,9.38
2023-01-29T00:16:39.998Z,9.30
2023-01-29T00:21:43.612Z,9.32
2023-01-29T00:26:45.808Z,9.70
2023-01-29T00:31:48.655Z,9.27
2023-01-29T00:36:52.249Z,9.32
2023-01-29T00:42:11.740Z,9.13
2023-01-29T00:47:27.801Z,8.90
2023-01-29T00:52:31.529Z,9.48
2023-01-29T00:57:35.395Z,10.32
2023-01-29T01:02:55.265Z,10.88
2023-01-29T01:07:59.782Z,10.60
2023-01-29T01:13:03.518Z,9.23
2023-01-29T01:18:06.328Z,9.85
2023-01-29T01:23:09.822Z,8.25
2023-01-29T01:28:12.005Z,8.48
2023-01-29T01:33:14.507Z,10.57
2023-01-29T01:38:20.414Z,9.60
2023-01-29T01:43:22.609Z,8.82
2023-01-29T01:48:27.725Z,9.40
2023-01-29T01:53:37.583Z,9.05
2023-01-29T01:58:44.760Z,9.30
2023-01-29T02:04:09.348Z,8.75
2023-01-29T02:09:37.966Z,8.18
2023-01-29T02:14:41.769Z,8.55
2023-01-29T02:19:50.452Z,8.20
2023-01-29T02:25:19.343Z,8.07
2023-01-29T02:30:27.447Z,8.07
2023-01-29T02:35:33.403Z,8.07
2023-01-29T02:40:44.037Z,8.20
2023-01-29T02:45:51.784Z,7.93
2023-01-29T02:50:59.868Z,8.63
2023-01-29T02:56:08.647Z,7.90
2023-01-29T03:01:18.831Z,7.50
2023-01-29T03:06:26.321Z,7.78
2023-01-29T03:11:35.167Z,7.07
2023-01-29T03:16:43.026Z,8.88
2023-01-29T03:21:55.421Z,8.02
2023-01-29T03:27:17.379Z,7.68
2023-01-29T03:32:23.960Z,6.53
2023-01-29T03:37:31.072Z,7.13
2023-01-29T03:42:45.345Z,7.45
2023-01-29T03:47:55.712Z,8.35
2023-01-29T03:53:05.818Z,6.57
2023-01-29T03:58:17.032Z,7.75
2023-01-29T04:03:24.511Z,7.95
2023-01-29T04:08:30.029Z,8.30
2023-01-29T04:13:34.677Z,7.78
2023-01-29T04:18:38.448Z,9.35
2023-01-29T04:23:40.611Z,9.00
2023-01-29T04:29:03.482Z,8.60
2023-01-29T04:34:17.625Z,8.38
2023-01-29T04:39:24.178Z,8.25
2023-01-29T04:44:34.744Z,8.05
2023-01-29T04:49:48.271Z,7.55
2023-01-29T04:55:03.164Z,7.38
2023-01-29T05:00:12.124Z,7.65
2023-01-29T05:05:17.830Z,6.63
2023-01-29T05:10:22.425Z,6.47
2023-01-29T05:15:28.977Z,7.75
2023-01-29T05:20:35.597Z,6.93
2023-01-29T05:25:38.118Z,6.75
2023-01-29T05:30:41.190Z,6.75
2023-01-29T05:35:44.741Z,7.70
2023-01-29T05:40:47.106Z,6.87
2023-01-29T05:45:54.793Z,7.35
2023-01-29T05:51:01.373Z,8.20
2023-01-29T05:56:04.596Z,6.78
2023-01-29T06:01:12.035Z,7.37
2023-01-29T06:06:15.990Z,7.53
2023-01-29T06:11:19.173Z,7.17
2023-01-29T06:16:21.412Z,7.88
2023-01-29T06:21:24.982Z,7.77
2023-01-29T06:26:27.261Z,7.17
2023-01-29T06:31:38.522Z,7.70
2023-01-29T06:36:42.916Z,7.37
2023-01-29T06:41:45.602Z,6.97
2023-01-29T06:46:47.814Z,6.93
2023-01-29T06:51:51.348Z,7.75
2023-01-29T06:56:53.732Z,8.03
2023-01-29T07:01:56.067Z,8.43
2023-01-29T07:07:00.676Z,7.83
2023-01-29T07:12:02.855Z,7.10
2023-01-29T07:17:05.269Z,8.30
2023-01-29T07:22:08.772Z,7.60
2023-01-29T07:27:10.894Z,7.37
2023-01-29T07:32:13.055Z,9.13
2023-01-29T07:37:16.637Z,7.57
2023-01-29T07:42:18.769Z,7.85
2023-01-29T07:47:20.890Z,8.85
2023-01-29T07:52:24.383Z,7.28
2023-01-29T07:57:26.837Z,8.27
2023-01-29T08:02:29.017Z,7.85
2023-01-29T08:07:32.571Z,7.18
2023-01-29T08:12:34.780Z,6.72
2023-01-29T08:17:52.523Z,7.78
2023-01-29T08:23:04.698Z,8.13
2023-01-29T08:28:06.814Z,8.18
2023-01-29T08:33:09.075Z,8.73
2023-01-29T08:38:12.580Z,7.55
2023-01-29T08:43:15.443Z,8.15
2023-01-29T08:48:17.607Z,8.68
2023-01-29T08:53:24.708Z,7.68
2023-01-29T08:58:27.047Z,8.02
2023-01-29T09:03:29.243Z,10.60
2023-01-29T09:08:32.785Z,7.30
2023-01-29T09:13:35.392Z,8.30
2023-01-29T09:18:37.681Z,8.25
2023-01-29T09:23:41.227Z,9.23
2023-01-29T09:28:43.391Z,8.05
2023-01-29T09:33:45.528Z,8.20
2023-01-29T09:38:49.084Z,11.23
2023-01-29T09:43:54.890Z,9.38
2023-01-29T09:49:04.396Z,8.93
2023-01-29T09:54:17.540Z,9.43
2023-01-29T09:59:22.549Z,8.30
2023-01-29T10:04:55.951Z,8.23
2023-01-29T10:10:24.756Z,10.00
2023-01-29T10:15:42.628Z,9.18
2023-01-29T10:21:05.688Z,8.65
2023-01-29T10:26:13.893Z,10.13
2023-01-29T10:31:22.076Z,8.75
2023-01-29T10:36:29.915Z,8.65
2023-01-29T10:42:03.542Z,9.00
2023-01-29T10:47:30.553Z,8.93
2023-01-29T10:52:44.889Z,8.90
2023-01-29T10:58:00.962Z,8.27
2023-01-29T11:03:26.863Z,8.60
2023-01-29T11:08:34.251Z,8.50
2023-01-29T11:13:43.748Z,10.80
2023-01-29T11:18:55.073Z,8.85
2023-01-29T11:24:08.571Z,10.70
2023-01-29T11:29:46.449Z,8.90
2023-01-29T11:35:00.773Z,9.52
2023-01-29T11:40:03.037Z,8.75
2023-01-29T11:45:26.651Z,10.88
2023-01-29T11:50:32.958Z,9.02
2023-01-29T11:55:49.775Z,8.98
2023-01-29T12:00:55.519Z,9.57
2023-01-29T12:06:01.369Z,9.90
2023-01-29T12:11:13.790Z,9.80
2023-01-29T12:16:25.023Z,10.75
2023-01-29T12:21:37.717Z,9.48
2023-01-29T12:26:46.938Z,10.15
2023-01-29T12:31:56.788Z,10.05
2023-01-29T12:37:10.854Z,10.55
2023-01-29T12:42:18.165Z,11.45
2023-01-29T12:47:24.680Z,11.32
2023-01-29T12:52:39.527Z,10.30
2023-01-29T12:57:48.307Z,12.05
2023-01-29T13:02:58.288Z,10.93
2023-01-29T13:08:06.750Z,12.57
2023-01-29T13:13:18.414Z,10.60
2023-01-29T13:18:41.327Z,10.65
2023-01-29T13:23:49.791Z,11.32
2023-01-29T13:28:53.589Z,11.45
2023-01-29T13:34:01.817Z,10.57
2023-01-29T13:39:08.870Z,10.43
2023-01-29T13:44:22.382Z,10.57
2023-01-29T13:49:38.565Z,11.10
2023-01-29T13:54:51.092Z,11.00
2023-01-29T13:59:55.770Z,10.35
2023-01-29T14:05:43.329Z,11.27
2023-01-29T14:10:47.283Z,11.07
2023-01-29T14:16:29.962Z,12.20
2023-01-29T14:21:33.957Z,11.25
2023-01-29T14:26:45.934Z,10.70
2023-01-29T14:31:53.868Z,12.20
2023-01-29T14:36:58.389Z,11.10
2023-01-29T14:42:05.239Z,11.23
2023-01-29T14:47:18.603Z,12.90
2023-01-29T14:52:29.382Z,14.60
2023-01-29T14:57:34.235Z,11.50
2023-01-29T15:02:42.325Z,11.93
2023-01-29T15:07:53.647Z,15.32
2023-01-29T15:13:03.034Z,12.02
2023-01-29T15:18:10.321Z,12.40
2023-01-29T15:23:31.085Z,12.77
2023-01-29T15:28:36.781Z,13.15
2023-01-29T15:33:39.738Z,13.45
2023-01-29T15:38:41.931Z,14.23
2023-01-29T15:43:47.793Z,15.15
2023-01-29T15:48:51.612Z,14.20
2023-01-29T15:53:56.529Z,14.55
2023-01-29T15:59:09.342Z,18.85
2023-01-29T16:04:18.807Z,15.77
2023-01-29T16:09:25.028Z,12.98
2023-01-29T16:14:30.284Z,15.93
2023-01-29T16:19:34.203Z,17.80
2023-01-29T16:24:39.720Z,16.70
2023-01-29T16:29:45.911Z,14.45
2023-01-29T16:34:52.612Z,14.52
2023-01-29T16:39:56.864Z,14.38
2023-01-29T16:45:03.722Z,13.68
2023-01-29T16:50:40.692Z,16.73
2023-01-29T16:55:51.824Z,21.13
2023-01-29T17:01:03.635Z,15.60
2023-01-29T17:06:12.818Z,17.30
2023-01-29T17:11:29.327Z,12.88
2023-01-29T17:16:35.226Z,15.15
2023-01-29T17:21:39.284Z,14.15
2023-01-29T17:26:43.097Z,14.32
2023-01-29T17:31:48.549Z,16.00
2023-01-29T17:36:55.439Z,15.77
2023-01-29T17:42:03.904Z,15.77
2023-01-29T17:47:15.220Z,14.57
2023-01-29T17:52:28.008Z,14.07
2023-01-29T17:57:32.864Z,14.70
2023-01-29T18:02:41.279Z,15.95
2023-01-29T18:07:47.811Z,15.98
2023-01-29T18:12:54.344Z,14.00
2023-01-29T18:17:59.874Z,14.35
2023-01-29T18:23:04.320Z,14.98
2023-01-29T18:28:09.114Z,13.85
2023-01-29T18:33:14.765Z,15.65
2023-01-29T18:38:18.877Z,13.88
2023-01-29T18:43:23.105Z,15.30
2023-01-29T18:48:29.213Z,15.48
2023-01-29T18:53:35.495Z,14.32
2023-01-29T18:58:40.247Z,14.50
2023-01-29T19:03:45.897Z,14.52
2023-01-29T19:08:51.442Z,13.68
2023-01-29T19:13:54.951Z,12.85
2023-01-29T19:19:00.307Z,15.38
2023-01-29T19:24:06.860Z,14.43
2023-01-29T19:29:10.554Z,13.88
2023-01-29T19:34:16.496Z,13.70
2023-01-29T19:39:22.688Z,14.27
2023-01-29T19:44:25.846Z,14.25
2023-01-29T19:49:31.258Z,15.27
2023-01-29T19:54:34.199Z,15.38
2023-01-29T19:59:39.937Z,14.57
2023-01-29T20:04:45.012Z,16.58
2023-01-29T20:09:50.021Z,13.63
2023-01-29T20:14:55.473Z,16.20
2023-01-29T20:20:03.330Z,15.02
2023-01-29T20:25:07.227Z,14.10
2023-01-29T20:30:12.606Z,14.43
2023-01-29T20:35:17.823Z,15.95
2023-01-29T20:40:21.474Z,16.25
2023-01-29T20:45:27.395Z,15.60
2023-01-29T20:50:32.081Z,16.00
2023-01-29T20:55:39.765Z,15.68
2023-01-29T21:00:44.069Z,15.95
2023-01-29T21:05:49.447Z,16.30
2023-01-29T21:10:54.862Z,15.93
2023-01-29T21:15:58.749Z,15.45
2023-01-29T21:21:04.794Z,17.02
2023-01-29T21:26:09.079Z,17.63
2023-01-29T21:31:14.504Z,17.07
2023-01-29T21:36:19.739Z,18.85
2023-01-29T21:41:43.095Z,18.50
2023-01-29T21:46:48.008Z,18.10
2023-01-29T21:51:52.300Z,20.17
2023-01-29T21:56:54.710Z,17.10
2023-01-29T22:01:56.946Z,20.38
2023-01-29T22:07:00.712Z,18.88
2023-01-29T22:12:03.280Z,18.27
2023-01-29T22:17:06.444Z,19.10
2023-01-29T22:22:13.440Z,19.02
2023-01-29T22:27:16.551Z,22.73
2023-01-29T22:32:19.119Z,21.30
2023-01-29T22:37:22.722Z,20.77
2023-01-29T22:42:24.870Z,20.73
2023-01-29T22:47:26.977Z,21.17
2023-01-29T22:52:38.683Z,21.90
2023-01-29T22:57:40.926Z,22.57
2023-01-29T23:02:43.110Z,21.45
2023-01-29T23:07:46.656Z,20.65
2023-01-29T23:12:48.781Z,22.08
2023-01-29T23:17:51.058Z,22.90
2023-01-29T23:22:54.615Z,22.07
2023-01-29T23:27:56.744Z,24.10
2023-01-29T23:32:58.872Z,22.70
2023-01-29T23:38:02.436Z,24.02
2023-01-29T23:43:04.558Z,22.50
2023-01-29T23:48:07.292Z,23.90
2023-01-29T23:53:10.881Z,23.90
2023-01-29T23:58:13.040Z,24.60
